createdAt,value
2022-08-26T00:01:24.331Z,13.05
2022-08-26T00:03:56.740Z,14.75
2022-08-26T00:06:23.596Z,13.57
2022-08-26T00:08:50.448Z,14.68
2022-08-26T00:11:26.687Z,13.85
2022-08-26T00:13:55.729Z,13.68
2022-08-26T00:16:25.182Z,14.48
2022-08-26T00:18:53.127Z,14.50
2022-08-26T00:21:20.443Z,14.75
2022-08-26T00:23:47.995Z,15.73
2022-08-26T00:26:14.962Z,16.52
2022-08-26T00:28:41.831Z,15.07
2022-08-26T00:31:11.057Z,15.43
2022-08-26T00:33:39.721Z,16.65
2022-08-26T00:36:07.768Z,16.38
2022-08-26T00:38:37.868Z,17.58
2022-08-26T00:41:05.628Z,17.45
2022-08-26T00:43:46.195Z,16.83
2022-08-26T00:46:25.493Z,16.10
2022-08-26T00:48:59.057Z,17.30
2022-08-26T00:51:29.739Z,16.38
2022-08-26T00:54:05.660Z,17.17
2022-08-26T00:56:43.668Z,15.88
2022-08-26T00:59:13.206Z,16.80
2022-08-26T01:01:43.130Z,16.52
2022-08-26T01:04:15.913Z,16.13
2022-08-26T01:06:44.384Z,15.85
2022-08-26T01:09:11.895Z,15.68
2022-08-26T01:11:38.989Z,15.68
2022-08-26T01:14:06.858Z,16.13
2022-08-26T01:16:35.660Z,15.05
2022-08-26T01:19:37.498Z,15.23
2022-08-26T01:22:17.268Z,14.52
2022-08-26T01:24:44.107Z,15.82
2022-08-26T01:27:14.539Z,16.35
2022-08-26T01:29:43.113Z,17.35
2022-08-26T01:32:14.501Z,17.45
2022-08-26T01:34:42.079Z,17.92
2022-08-26T01:37:22.005Z,18.10
2022-08-26T01:39:51.976Z,18.08
2022-08-26T01:42:21.552Z,17.55
2022-08-26T01:45:05.343Z,17.27
2022-08-26T01:47:36.525Z,16.80
2022-08-26T01:50:09.913Z,16.80
2022-08-26T01:52:41.430Z,17.58
2022-08-26T01:55:11.376Z,16.40
2022-08-26T01:57:38.242Z,17.08
2022-08-26T02:00:09.882Z,16.23
2022-08-26T02:02:46.502Z,17.55
2022-08-26T02:05:19.725Z,18.10
2022-08-26T02:07:48.171Z,17.75
2022-08-26T02:10:15.784Z,16.48
2022-08-26T02:12:43.443Z,17.25
2022-08-26T02:15:12.756Z,16.77
2022-08-26T02:17:45.691Z,18.08
2022-08-26T02:20:17.514Z,16.90
2022-08-26T02:22:46.081Z,16.45
2022-08-26T02:25:30.958Z,17.23
2022-08-26T02:27:58.023Z,17.38
2022-08-26T02:30:32.042Z,17.20
2022-08-26T02:33:03.750Z,18.52
2022-08-26T02:35:32.249Z,17.65
2022-08-26T02:38:00.382Z,19.38
2022-08-26T02:40:31.304Z,17.95
2022-08-26T02:42:58.482Z,18.13
2022-08-26T02:45:28.994Z,17.15
2022-08-26T02:47:58.497Z,17.80
2022-08-26T02:50:27.427Z,17.70
2022-08-26T02:52:54.593Z,18.15
2022-08-26T02:55:21.526Z,17.67
2022-08-26T02:57:52.429Z,18.55
2022-08-26T03:00:19.386Z,17.75
2022-08-26T03:02:46.164Z,19.40
2022-08-26T03:05:13.077Z,21.52
2022-08-26T03:07:39.905Z,21.65
2022-08-26T03:10:08.568Z,21.25
2022-08-26T03:12:36.011Z,20.73
2022-08-26T03:15:03.296Z,20.33
2022-08-26T03:17:44.468Z,20.13
2022-08-26T03:20:11.616Z,20.35
2022-08-26T03:22:40.608Z,20.02
2022-08-26T03:25:09.769Z,17.85
2022-08-26T03:27:36.505Z,20.15
2022-08-26T03:30:23.769Z,18.50
2022-08-26T03:32:50.673Z,20.00
2022-08-26T03:35:18.642Z,19.40
2022-08-26T03:37:49.324Z,19.33
2022-08-26T03:40:16.437Z,19.30
2022-08-26T03:42:47.811Z,17.25
2022-08-26T03:45:17.628Z,17.27
2022-08-26T03:47:44.806Z,17.00
2022-08-26T03:50:14.224Z,18.13
2022-08-26T03:52:44.016Z,18.88
2022-08-26T03:55:11.453Z,19.23
2022-08-26T03:57:38.474Z,19.10
2022-08-26T04:00:09.195Z,19.20
2022-08-26T04:02:36.442Z,19.30
2022-08-26T04:05:04.066Z,19.13
2022-08-26T04:07:32.083Z,16.67
2022-08-26T04:09:59.994Z,17.15
2022-08-26T04:12:27.011Z,16.42
2022-08-26T04:14:54.121Z,16.42
2022-08-26T04:17:25.828Z,16.17
2022-08-26T04:19:53.870Z,16.00
2022-08-26T04:22:24.803Z,15.48
2022-08-26T04:24:52.588Z,15.90
2022-08-26T04:27:19.435Z,15.45
2022-08-26T04:29:46.653Z,15.30
2022-08-26T04:32:15.681Z,14.93
2022-08-26T04:34:43.654Z,15.68
2022-08-26T04:37:11.776Z,15.73
2022-08-26T04:39:38.633Z,16.65
2022-08-26T04:42:06.021Z,17.00
2022-08-26T04:44:35.600Z,15.93
2022-08-26T04:47:03.054Z,17.48
2022-08-26T04:49:35.188Z,18.73
2022-08-26T04:52:03.745Z,16.27
2022-08-26T04:54:32.153Z,16.77
2022-08-26T04:56:59.292Z,16.40
2022-08-26T04:59:26.332Z,15.57
2022-08-26T05:01:57.292Z,16.23
2022-08-26T05:04:24.153Z,14.70
2022-08-26T05:06:54.055Z,14.35
2022-08-26T05:09:23.696Z,15.38
2022-08-26T05:11:52.517Z,15.68
2022-08-26T05:14:20.366Z,16.67
2022-08-26T05:16:47.943Z,17.20
2022-08-26T05:19:18.724Z,17.63
2022-08-26T05:21:47.140Z,16.27
2022-08-26T05:24:14.435Z,15.73
2022-08-26T05:26:41.735Z,15.93
2022-08-26T05:29:12.928Z,16.40
2022-08-26T05:31:39.749Z,15.60
2022-08-26T05:34:07.481Z,14.95
2022-08-26T05:36:36.944Z,15.73
2022-08-26T05:39:05.841Z,15.52
2022-08-26T05:41:36.540Z,14.32
2022-08-26T05:44:07.634Z,13.07
2022-08-26T05:46:36.880Z,13.88
2022-08-26T05:49:05.771Z,13.93
2022-08-26T05:51:33.453Z,13.02
2022-08-26T05:54:02.462Z,13.18
2022-08-26T05:56:30.631Z,12.85
2022-08-26T05:58:59.798Z,12.95
2022-08-26T06:01:29.045Z,11.82
2022-08-26T06:03:59.774Z,12.38
2022-08-26T06:06:32.589Z,11.75
2022-08-26T06:09:01.530Z,12.10
2022-08-26T06:11:32.348Z,12.88
2022-08-26T06:14:04.013Z,11.50
2022-08-26T06:16:33.759Z,10.80
2022-08-26T06:19:02.989Z,11.65
2022-08-26T06:21:32.692Z,10.75
2022-08-26T06:24:26.887Z,11.13
2022-08-26T06:26:57.472Z,11.80
2022-08-26T06:29:26.103Z,11.68
2022-08-26T06:31:54.392Z,10.70
2022-08-26T06:34:23.701Z,11.40
2022-08-26T06:36:58.669Z,10.65
2022-08-26T06:39:25.637Z,9.95
2022-08-26T06:41:52.951Z,10.18
2022-08-26T06:44:21.031Z,10.18
2022-08-26T06:46:50.380Z,10.85
2022-08-26T06:49:26.838Z,11.02
2022-08-26T06:52:00.840Z,11.18
2022-08-26T06:54:30.266Z,9.32
2022-08-26T06:56:57.926Z,9.80
2022-08-26T06:59:25.702Z,11.32
2022-08-26T07:01:53.539Z,11.80
2022-08-26T07:04:22.482Z,11.40
2022-08-26T07:06:52.709Z,11.88
2022-08-26T07:09:21.712Z,10.90
2022-08-26T07:11:48.661Z,11.20
2022-08-26T07:14:19.405Z,10.95
2022-08-26T07:16:49.861Z,9.82
2022-08-26T07:19:27.493Z,10.18
2022-08-26T07:21:57.663Z,9.23
2022-08-26T07:24:24.488Z,9.55
2022-08-26T07:26:59.108Z,8.70
2022-08-26T07:29:26.213Z,9.05
2022-08-26T07:31:53.686Z,8.02
2022-08-26T07:34:24.064Z,8.50
2022-08-26T07:36:51.684Z,9.05
2022-08-26T07:39:19.514Z,9.73
2022-08-26T07:41:47.365Z,9.50
2022-08-26T07:44:14.753Z,10.00
2022-08-26T07:46:41.716Z,9.73
2022-08-26T07:49:12.211Z,9.20
2022-08-26T07:51:40.274Z,10.13
2022-08-26T07:54:07.409Z,9.27
2022-08-26T07:56:34.845Z,8.60
2022-08-26T07:59:13.527Z,9.18
2022-08-26T08:01:41.463Z,7.75
2022-08-26T08:04:17.975Z,8.52
2022-08-26T08:06:46.054Z,7.85
2022-08-26T08:09:14.938Z,7.95
2022-08-26T08:11:44.824Z,8.98
2022-08-26T08:14:13.163Z,9.20
2022-08-26T08:16:46.050Z,9.35
2022-08-26T08:19:15.050Z,9.02
2022-08-26T08:21:43.020Z,8.50
2022-08-26T08:24:11.213Z,8.65
2022-08-26T08:26:38.798Z,8.70
2022-08-26T08:29:07.997Z,8.27
2022-08-26T08:34:24.652Z,7.63
2022-08-26T08:36:53.469Z,6.38
2022-08-26T08:39:21.917Z,6.03
2022-08-26T08:42:07.465Z,5.30
2022-08-26T08:44:38.612Z,5.40
2022-08-26T08:47:20.761Z,5.50
2022-08-26T08:49:47.985Z,5.28
2022-08-26T08:52:35.128Z,6.43
2022-08-26T08:55:04.330Z,4.57
2022-08-26T08:57:47.232Z,5.10
2022-08-26T09:00:18.370Z,4.65
2022-08-26T09:02:53.743Z,3.80
2022-08-26T09:05:25.968Z,5.28
2022-08-26T09:08:02.007Z,4.75
2022-08-26T09:10:50.864Z,4.13
2022-08-26T09:13:26.187Z,3.13
2022-08-26T09:16:14.236Z,3.40
2022-08-26T09:19:07.270Z,3.13
2022-08-26T09:21:34.646Z,3.03
2022-08-26T09:24:01.487Z,3.30
2022-08-26T09:26:43.831Z,2.70
2022-08-26T09:32:24.395Z,2.58
2022-08-26T09:35:01.674Z,2.88
2022-08-26T09:37:42.092Z,2.65
2022-08-26T09:40:29.140Z,2.60
2022-08-26T09:43:08.260Z,2.50
2022-08-26T09:45:36.187Z,2.30
2022-08-26T09:48:03.453Z,2.17
2022-08-26T09:50:54.672Z,2.88
2022-08-26T09:53:28.674Z,2.58
2022-08-26T09:56:25.971Z,2.90
2022-08-26T09:58:56.013Z,2.53
2022-08-26T10:01:36.124Z,3.22
2022-08-26T10:04:23.160Z,3.15
2022-08-26T10:06:59.729Z,2.90
2022-08-26T10:09:28.741Z,3.20
2022-08-26T10:12:01.941Z,3.20
2022-08-26T10:17:17.022Z,3.90
2022-08-26T10:19:56.998Z,3.10
2022-08-26T10:22:38.445Z,3.25
2022-08-26T10:25:09.115Z,4.05
2022-08-26T10:27:36.398Z,3.90
2022-08-26T10:30:27.562Z,3.20
2022-08-26T10:33:06.582Z,3.78
2022-08-26T10:35:36.437Z,3.38
2022-08-26T10:38:15.502Z,3.70
2022-08-26T10:41:09.985Z,3.42
2022-08-26T10:43:41.316Z,3.65
2022-08-26T10:46:22.447Z,3.58
2022-08-26T10:49:00.012Z,3.70
2022-08-26T10:51:35.492Z,3.05
2022-08-26T10:54:11.802Z,3.53
2022-08-26T10:57:15.405Z,3.20
2022-08-26T11:00:24.114Z,3.65
2022-08-26T11:03:03.186Z,3.13
2022-08-26T11:05:30.248Z,2.88
2022-08-26T11:08:19.353Z,3.20
2022-08-26T11:10:50.420Z,3.05
2022-08-26T11:13:17.896Z,3.22
2022-08-26T11:15:54.224Z,2.90
2022-08-26T11:18:40.044Z,2.63
2022-08-26T11:21:43.713Z,2.35
2022-08-26T11:24:43.992Z,2.17
2022-08-26T11:27:32.044Z,2.72
2022-08-26T11:30:40.078Z,2.63
2022-08-26T11:33:08.210Z,2.20
2022-08-26T11:35:37.547Z,2.28
2022-08-26T11:38:28.189Z,2.30
2022-08-26T11:41:03.357Z,2.28
2022-08-26T11:43:32.872Z,2.30
2022-08-26T11:46:12.771Z,2.35
2022-08-26T11:48:43.954Z,2.22
2022-08-26T11:51:20.437Z,2.13
2022-08-26T11:53:47.421Z,2.25
2022-08-26T11:56:32.504Z,2.05
2022-08-26T11:59:01.995Z,2.85
2022-08-26T12:01:32.297Z,2.17
2022-08-26T12:04:00.325Z,2.90
2022-08-26T12:06:38.924Z,2.00
2022-08-26T12:09:14.044Z,1.85
2022-08-26T12:11:41.938Z,1.83
2022-08-26T12:14:19.518Z,1.80
2022-08-26T12:16:46.835Z,1.83
2022-08-26T12:19:26.358Z,2.05
2022-08-26T12:22:14.011Z,1.92
2022-08-26T12:24:56.891Z,1.70
2022-08-26T12:27:27.212Z,2.13
2022-08-26T12:30:08.344Z,2.65
2022-08-26T12:32:57.414Z,2.20
2022-08-26T12:35:26.873Z,3.45
2022-08-26T12:37:55.261Z,3.20
2022-08-26T12:40:32.809Z,3.13
2022-08-26T12:43:04.140Z,3.00
2022-08-26T12:45:34.663Z,2.97
2022-08-26T12:48:30.493Z,3.05
2022-08-26T12:50:58.398Z,3.03
2022-08-26T12:53:31.237Z,2.55
2022-08-26T12:56:07.614Z,2.28
2022-08-26T12:58:38.860Z,2.08
2022-08-26T13:01:08.805Z,1.98
2022-08-26T13:03:38.610Z,2.03
2022-08-26T13:06:31.347Z,1.60
2022-08-26T13:09:21.408Z,2.00
2022-08-26T13:11:48.370Z,1.58
2022-08-26T13:14:21.086Z,1.60
2022-08-26T13:16:52.480Z,1.60
2022-08-26T13:19:22.571Z,2.38
2022-08-26T13:21:54.777Z,1.80
2022-08-26T13:24:26.606Z,2.00
2022-08-26T13:26:53.594Z,2.03
2022-08-26T13:29:20.625Z,2.05
2022-08-26T13:31:47.848Z,2.17
2022-08-26T13:34:18.890Z,2.53
2022-08-26T13:36:47.300Z,2.50
2022-08-26T13:39:14.570Z,3.03
2022-08-26T13:41:42.429Z,2.95
2022-08-26T13:44:10.310Z,2.50
2022-08-26T13:46:38.192Z,2.47
2022-08-26T13:49:06.297Z,2.55
2022-08-26T13:51:33.848Z,2.67
2022-08-26T13:54:00.855Z,2.42
2022-08-26T13:56:29.824Z,2.20
2022-08-26T13:58:58.454Z,2.20
2022-08-26T14:01:25.853Z,2.95
2022-08-26T14:03:53.160Z,2.78
2022-08-26T14:06:20.662Z,2.80
2022-08-26T14:08:48.671Z,2.67
2022-08-26T14:11:15.713Z,2.92
2022-08-26T14:13:42.526Z,2.65
2022-08-26T14:16:14.686Z,3.08
2022-08-26T14:18:46.194Z,2.85
2022-08-26T14:21:15.752Z,3.03
2022-08-26T14:23:43.891Z,2.40
2022-08-26T14:26:14.343Z,2.72
2022-08-26T14:28:55.751Z,2.53
2022-08-26T14:31:23.859Z,2.72
2022-08-26T14:33:50.845Z,2.75
2022-08-26T14:36:31.286Z,2.83
2022-08-26T14:39:07.103Z,2.28
2022-08-26T14:41:44.801Z,2.53
2022-08-26T14:44:14.838Z,2.75
2022-08-26T14:46:49.640Z,2.80
2022-08-26T14:49:17.600Z,2.78
2022-08-26T14:51:44.654Z,3.28
2022-08-26T14:54:12.495Z,2.40
2022-08-26T14:57:01.566Z,2.67
2022-08-26T14:59:31.551Z,2.85
2022-08-26T15:01:58.920Z,3.05
2022-08-26T15:04:26.559Z,2.40
2022-08-26T15:06:55.629Z,3.60
2022-08-26T15:09:23.667Z,3.53
2022-08-26T15:11:51.435Z,3.25
2022-08-26T15:14:20.044Z,3.25
2022-08-26T15:16:49.646Z,3.38
2022-08-26T15:19:17.430Z,2.80
2022-08-26T15:21:45.649Z,2.85
2022-08-26T15:24:14.688Z,2.10
2022-08-26T15:26:41.817Z,2.20
2022-08-26T15:29:08.660Z,2.53
2022-08-26T15:31:36.631Z,1.67
2022-08-26T15:34:13.336Z,1.83
2022-08-26T15:36:44.782Z,1.55
2022-08-26T15:39:12.191Z,1.52
2022-08-26T15:41:39.584Z,2.03
2022-08-26T15:44:07.776Z,1.90
2022-08-26T15:46:35.008Z,1.60
2022-08-26T15:49:03.922Z,1.45
2022-08-26T15:51:34.167Z,1.42
2022-08-26T15:54:03.201Z,1.65
2022-08-26T15:56:34.560Z,1.90
2022-08-26T15:59:03.532Z,1.88
2022-08-26T16:01:32.114Z,2.00
2022-08-26T16:03:59.564Z,1.48
2022-08-26T16:06:30.254Z,1.40
2022-08-26T16:08:57.627Z,1.35
2022-08-26T16:11:26.087Z,1.65
2022-08-26T16:13:53.278Z,1.40
2022-08-26T16:16:21.389Z,1.27
2022-08-26T16:18:48.460Z,1.80
2022-08-26T16:21:17.611Z,1.38
2022-08-26T16:23:45.315Z,1.33
2022-08-26T16:26:19.439Z,1.20
2022-08-26T16:28:47.321Z,1.40
2022-08-26T16:31:15.648Z,1.15
2022-08-26T16:33:42.562Z,1.35
2022-08-26T16:36:10.845Z,1.10
2022-08-26T16:38:38.742Z,1.52
2022-08-26T16:41:06.195Z,1.05
2022-08-26T16:43:33.293Z,1.38
2022-08-26T16:46:00.152Z,1.20
2022-08-26T16:48:27.891Z,1.60
2022-08-26T16:50:55.617Z,1.00
2022-08-26T16:53:23.435Z,1.02
2022-08-26T16:55:50.744Z,1.45
2022-08-26T16:58:18.396Z,1.00
2022-08-26T17:00:45.806Z,1.35
2022-08-26T17:03:13.060Z,1.40
2022-08-26T17:05:40.286Z,1.05
2022-08-26T17:08:07.319Z,1.15
2022-08-26T17:10:35.054Z,1.33
2022-08-26T17:13:01.887Z,1.50
2022-08-26T17:15:28.909Z,0.80
2022-08-26T17:17:56.711Z,1.05
2022-08-26T17:20:24.745Z,1.38
2022-08-26T17:22:54.160Z,0.98
2022-08-26T17:25:31.640Z,1.10
2022-08-26T17:27:58.860Z,1.35
2022-08-26T17:30:25.994Z,1.42
2022-08-26T17:32:54.452Z,1.00
2022-08-26T17:35:21.754Z,1.10
2022-08-26T17:37:48.582Z,1.00
2022-08-26T17:40:22.495Z,1.27
2022-08-26T17:42:49.755Z,1.25
2022-08-26T17:45:17.569Z,1.30
2022-08-26T17:47:45.222Z,1.35
2022-08-26T17:50:15.308Z,1.20
2022-08-26T17:52:42.167Z,0.82
2022-08-26T17:55:12.466Z,0.80
2022-08-26T17:57:40.685Z,1.10
2022-08-26T18:00:20.990Z,0.77
2022-08-26T18:02:47.768Z,0.93
2022-08-26T18:05:17.472Z,1.00
2022-08-26T18:07:44.912Z,0.90
2022-08-26T18:10:15.430Z,1.08
2022-08-26T18:12:42.726Z,0.93
2022-08-26T18:15:11.720Z,0.75
2022-08-26T18:17:39.848Z,0.98
2022-08-26T18:20:12.196Z,0.95
2022-08-26T18:22:39.518Z,1.13
2022-08-26T18:25:08.079Z,0.85
2022-08-26T18:27:37.958Z,0.73
2022-08-26T18:30:07.907Z,0.90
2022-08-26T18:32:35.573Z,1.00
2022-08-26T18:35:02.727Z,0.95
2022-08-26T18:37:31.558Z,1.17
2022-08-26T18:39:59.595Z,0.73
2022-08-26T18:42:26.812Z,0.70
2022-08-26T18:44:53.864Z,0.93
2022-08-26T18:47:20.932Z,0.90
2022-08-26T18:49:48.597Z,0.80
2022-08-26T18:52:15.843Z,1.27
2022-08-26T18:54:43.181Z,0.85
2022-08-26T18:57:10.647Z,1.10
2022-08-26T18:59:37.671Z,0.82
2022-08-26T19:02:04.914Z,0.93
2022-08-26T19:04:31.842Z,0.93
2022-08-26T19:06:58.820Z,0.88
2022-08-26T19:09:26.440Z,0.75
2022-08-26T19:11:57.697Z,0.70
2022-08-26T19:14:25.290Z,0.80
2022-08-26T19:16:54.979Z,0.88
2022-08-26T19:19:25.859Z,0.80
2022-08-26T19:21:55.433Z,0.82
2022-08-26T19:24:23.150Z,0.95
2022-08-26T19:26:57.435Z,0.70
2022-08-26T19:29:27.410Z,0.80
2022-08-26T19:31:54.307Z,1.20
2022-08-26T19:34:21.173Z,0.77
2022-08-26T19:36:48.512Z,0.70
2022-08-26T19:39:15.634Z,0.77
2022-08-26T19:41:42.429Z,0.73
2022-08-26T19:44:33.485Z,0.65
2022-08-26T19:47:01.071Z,0.70
2022-08-26T19:49:27.860Z,0.90
2022-08-26T19:51:54.629Z,0.60
2022-08-26T19:54:24.301Z,0.60
2022-08-26T19:56:51.343Z,0.93
2022-08-26T19:59:18.655Z,1.27
2022-08-26T20:01:45.601Z,0.77
2022-08-26T20:04:12.519Z,1.35
2022-08-26T20:06:39.727Z,1.00
2022-08-26T20:09:06.680Z,1.05
2022-08-26T20:11:33.763Z,1.15
2022-08-26T20:14:00.624Z,1.10
2022-08-26T20:16:27.545Z,1.10
2022-08-26T20:19:36.920Z,1.40
2022-08-26T20:22:05.032Z,0.90
2022-08-26T20:24:32.708Z,1.10
2022-08-26T20:27:03.308Z,1.42
2022-08-26T20:29:33.105Z,1.25
2022-08-26T20:32:00.535Z,1.77
2022-08-26T20:34:27.457Z,1.23
2022-08-26T20:36:54.306Z,1.60
2022-08-26T20:39:21.759Z,1.00
2022-08-26T20:41:49.146Z,1.20
2022-08-26T20:44:17.665Z,1.40
2022-08-26T20:46:44.693Z,1.10
2022-08-26T20:49:13.266Z,1.65
2022-08-26T20:51:42.788Z,1.00
2022-08-26T20:54:11.991Z,1.40
2022-08-26T20:56:39.324Z,0.90
2022-08-26T20:59:07.509Z,1.35
2022-08-26T21:01:36.295Z,1.08
2022-08-26T21:04:06.364Z,1.42
2022-08-26T21:06:34.393Z,1.63
2022-08-26T21:09:02.414Z,1.20
2022-08-26T21:11:29.309Z,1.30
2022-08-26T21:14:16.248Z,1.25
2022-08-26T21:16:43.925Z,1.40
2022-08-26T21:19:12.986Z,1.30
2022-08-26T21:21:40.860Z,1.02
2022-08-26T21:24:08.004Z,1.45
2022-08-26T21:26:34.963Z,1.42
2022-08-26T21:29:02.603Z,1.17
2022-08-26T21:31:32.022Z,1.30
2022-08-26T21:33:59.536Z,1.58
2022-08-26T21:36:26.784Z,1.15
2022-08-26T21:38:58.704Z,1.20
2022-08-26T21:41:26.089Z,1.30
2022-08-26T21:43:57.966Z,1.00
2022-08-26T21:46:26.937Z,1.15
2022-08-26T21:49:02.389Z,1.20
2022-08-26T21:51:32.317Z,1.38
2022-08-26T21:54:00.623Z,1.20
2022-08-26T21:56:31.553Z,1.20
2022-08-26T21:59:00.115Z,1.17
2022-08-26T22:01:31.879Z,1.33
2022-08-26T22:03:59.083Z,1.15
2022-08-26T22:06:27.580Z,1.30
2022-08-26T22:08:54.621Z,0.98
2022-08-26T22:11:21.865Z,1.23
2022-08-26T22:13:49.634Z,1.08
2022-08-26T22:16:17.057Z,1.10
2022-08-26T22:18:45.847Z,1.42
2022-08-26T22:21:18.730Z,1.10
2022-08-26T22:23:46.219Z,1.42
2022-08-26T22:26:15.632Z,1.35
2022-08-26T22:28:58.550Z,1.42
2022-08-26T22:31:38.393Z,1.40
2022-08-26T22:34:11.598Z,1.50
2022-08-26T22:36:43.626Z,1.52
2022-08-26T22:39:13.209Z,1.02
2022-08-26T22:41:41.257Z,1.23
2022-08-26T22:44:08.063Z,1.20
2022-08-26T22:46:36.742Z,1.00
2022-08-26T22:49:04.806Z,0.95
2022-08-26T22:51:32.153Z,1.58
2022-08-26T22:53:59.313Z,1.10
2022-08-26T22:56:26.337Z,1.38
2022-08-26T22:58:53.122Z,1.20
2022-08-26T23:01:19.950Z,1.10
2022-08-26T23:03:46.906Z,1.10
2022-08-26T23:06:13.710Z,1.38
2022-08-26T23:08:41.907Z,0.93
2022-08-26T23:11:11.283Z,0.77
2022-08-26T23:13:39.275Z,1.10
2022-08-26T23:16:09.491Z,1.10
2022-08-26T23:18:37.039Z,1.20
2022-08-26T23:21:04.718Z,1.08
2022-08-26T23:23:32.092Z,1.02
2022-08-26T23:25:59.309Z,1.08
2022-08-26T23:28:26.557Z,1.05
2022-08-26T23:30:53.839Z,1.27
2022-08-26T23:33:21.289Z,1.17
2022-08-26T23:35:48.207Z,0.93
2022-08-26T23:38:16.785Z,0.98
2022-08-26T23:40:43.536Z,1.10
2022-08-26T23:43:11.575Z,1.05
2022-08-26T23:45:38.970Z,0.93
2022-08-26T23:48:06.703Z,1.00
2022-08-26T23:50:52.906Z,1.10
2022-08-26T23:53:22.282Z,0.90
2022-08-26T23:55:51.493Z,0.73
2022-08-26T23:58:20.383Z,1.00
